Anchorage, AK (99515)

4:46 AM AKDT on November 01, 2014 (GMT -0800)
Oceanview | Change Station
CLOSE
Current Station
Personal Weather Station
Location: Anchorage, AK
Elevation: 75 ft
Nearby Weather Stations

Elev 75 ft 61.11 °N, 149.91 °W | Updated 43 seconds ago

Overcast
Overcast
27.5 °F
Feels Like 28 °F
N
1.6
Wind Variable Wind from West
Gusts 5.4 mph

Today
High -- | Low -- °F
--% Chance of Precip.
Yesterday
High -- | Low -- °F
Precip. -- in
9:27 AM 5:57 PM
Waxing Gibbous, 66% visible
Pressure 29.19 in
Visibility 10.0 miles
Clouds Overcast 7000 ft
Windchill 28 °F
Dew Point 16 °F
Humidity 62%
Rainfall 0.00 in
Snow Depth Not available.
UV 0 out of 12
Pollen Not available.
Air Quality Not available.
Flu Activity Not available.
METAR PALH 011153Z 01006KT 10SM OVC070 M01/M08 A2919 RMK AO2 SLP884 T10111083 11011 21017 58011

More Conditions Fewer Conditions

Pressure 29.19 in
Visibility 10.0 miles
Clouds Overcast 7000 ft
Windchill 28 °F
Dew Point 16 °F
Humidity 62%
Rainfall 0.00 in
Snow Depth Not available.
UV 0 out of 12
Pollen Not available.
Air Quality Not available.
Flu Activity Not available.
METAR PALH 011153Z 01006KT 10SM OVC070 M01/M08 A2919 RMK AO2 SLP884 T10111083 11011 21017 58011

More Conditions Fewer Conditions

10-Day Weather Forecast

Almanac

Astronomy

Nov. 01, 2014 Rise Set
Actual Time
Civil Twilight
Nautical Twilight
Astronomical Twilight
Moon
Length of Visible Light
Length of Day
Tomorrow will be .
, % of the Moon is Illuminated

Today's Extremes

State Highs State Lows

Community

WunderPhotos

Upload Photos

1,766,915 photos uploaded!

WunderBlogs® & News

Nearby

Air Quality

  Air Quality AQ Index Pollutant
Not available.

Snow Depth

Station Depth Elevation

Earthquake Activity

City Distance Mag. Time & Date
Minimum magnitude displayed is 2.5.

Coastal Water Temperatures

Place Temperature

Nearby Weather Stations